Time,TemperatureF,DewpointF,PressureIn,WindDirection,WindDirectionDegrees,WindSpeedMPH,WindSpeedGustMPH,Humidity,HourlyPrecipIn,Conditions,Clouds,dailyrainin,SoftwareType,DateUTC
2013-03-04 00:00:00,22.1,14.1,30.06,WSW,245,2.0,7.0,71,0.00,,,0.00,Wunderground v.1.15,2013-03-04 05:00:00,
2013-03-04 00:10:00,22.1,14.1,30.06,SW,225,2.0,7.0,71,0.00,,,0.00,Wunderground v.1.15,2013-03-04 05:10:00,
2013-03-04 00:15:00,22.0,13.7,30.05,SSW,204,2.0,7.0,70,0.00,,,0.00,Wunderground v.1.15,2013-03-04 05:15:00,
2013-03-04 00:20:00,22.0,14.0,30.06,SW,224,3.0,7.0,71,0.00,,,0.00,Wunderground v.1.15,2013-03-04 05:20:00,
2013-03-04 00:25:00,22.0,14.0,30.05,WSW,240,3.0,7.0,71,0.00,,,0.00,Wunderground v.1.15,2013-03-04 05:25:00,
2013-03-04 00:30:00,22.0,14.0,30.06,WSW,253,3.0,3.0,71,0.00,,,0.00,Wunderground v.1.15,2013-03-04 05:30:00,
2013-03-04 00:35:00,21.9,13.9,30.06,WSW,242,2.0,7.0,71,0.00,,,0.00,Wunderground v.1.15,2013-03-04 05:35:00,
2013-03-04 00:45:00,21.8,13.8,30.06,SW,229,3.0,7.0,71,0.00,,,0.00,Wunderground v.1.15,2013-03-04 05:45:00,
2013-03-04 00:50:00,21.8,13.8,30.06,SW,236,3.0,3.0,71,0.00,,,0.00,Wunderground v.1.15,2013-03-04 05:50:00,
2013-03-04 00:55:00,21.8,13.8,30.06,WSW,257,3.0,7.0,71,0.00,,,0.00,Wunderground v.1.15,2013-03-04 05:55:00,
2013-03-04 01:00:00,21.8,14.2,30.06,West,269,3.0,3.0,72,0.00,,,0.00,Wunderground v.1.15,2013-03-04 06:00:00,
2013-03-04 06:30:00,21.1,15.6,30.15,West,272,2.0,2.0,79,0.00,,,0.00,Wunderground v.1.15,2013-03-04 11:30:00,
2013-03-04 06:40:00,21.0,15.5,30.15,West,272,2.0,7.0,79,0.00,,,0.00,Wunderground v.1.15,2013-03-04 11:40:00,
2013-03-04 06:45:00,21.0,15.8,30.16,WSW,252,2.0,7.0,80,0.00,,,0.00,Wunderground v.1.15,2013-03-04 11:45:00,
2013-03-04 06:55:00,21.1,15.6,30.16,WSW,255,2.0,7.0,79,0.00,,,0.00,Wunderground v.1.15,2013-03-04 11:55:00,
2013-03-04 07:05:00,21.2,15.7,30.16,WSW,246,2.0,4.0,79,0.00,,,0.00,Wunderground v.1.15,2013-03-04 12:05:00,
2013-03-04 07:10:00,21.2,15.7,30.16,WSW,249,2.0,2.0,79,0.00,,,0.00,Wunderground v.1.15,2013-03-04 12:10:00,
2013-03-04 07:20:00,21.6,15.8,30.16,West,264,3.0,7.0,78,0.00,,,0.00,Wunderground v.1.15,2013-03-04 12:20:00,
2013-03-04 07:35:00,21.7,15.9,30.16,WSW,255,2.0,2.0,78,0.00,,,0.00,Wunderground v.1.15,2013-03-04 12:35:00,
2013-03-04 07:40:00,21.9,16.1,30.15,West,262,2.0,3.0,78,0.00,,,0.00,Wunderground v.1.15,2013-03-04 12:40:00,
2013-03-04 07:45:00,22.1,16.3,30.15,WSW,256,3.0,3.0,78,0.00,,,0.00,Wunderground v.1.15,2013-03-04 12:45:00,
2013-03-04 07:50:00,22.4,16.3,30.15,West,262,3.0,7.0,77,0.00,,,0.00,Wunderground v.1.15,2013-03-04 12:50:00,
2013-03-04 07:55:00,22.8,16.4,30.15,WSW,242,3.0,7.0,76,0.00,,,0.00,Wunderground v.1.15,2013-03-04 12:55:00,
2013-03-04 08:00:00,23.3,16.5,30.15,West,273,3.0,3.0,75,0.00,,,0.00,Wunderground v.1.15,2013-03-04 13:00:00,
2013-03-04 08:05:00,23.9,16.8,30.16,WSW,252,3.0,7.0,74,0.00,,,0.00,Wunderground v.1.15,2013-03-04 13:05:00,
2013-03-04 08:10:00,24.3,16.9,30.16,WSW,242,3.0,3.0,73,0.00,,,0.00,Wunderground v.1.15,2013-03-04 13:10:00,
2013-03-04 08:15:00,24.7,17.3,30.16,SW,228,3.0,7.0,73,0.00,,,0.00,Wunderground v.1.15,2013-03-04 13:15:00,
2013-03-04 08:20:00,25.3,17.5,30.16,WSW,240,2.0,7.0,72,0.00,,,0.00,Wunderground v.1.15,2013-03-04 13:20:00,
2013-03-04 08:25:00,25.5,17.4,30.16,WSW,257,2.0,7.0,71,0.00,,,0.00,Wunderground v.1.15,2013-03-04 13:25:00,
2013-03-04 08:30:00,25.8,17.4,30.16,SW,233,3.0,7.0,70,0.00,,,0.00,Wunderground v.1.15,2013-03-04 13:30:00,
2013-03-04 08:35:00,26.1,17.6,30.16,West,278,3.0,7.0,70,0.00,,,0.00,Wunderground v.1.15,2013-03-04 13:35:00,
2013-03-04 08:40:00,26.5,17.7,30.16,West,259,3.0,3.0,69,0.00,,,0.00,Wunderground v.1.15,2013-03-04 13:40:00,
2013-03-04 08:45:00,26.9,17.7,30.16,West,280,3.0,7.0,68,0.00,,,0.00,Wunderground v.1.15,2013-03-04 13:45:00,
2013-03-04 08:50:00,27.5,17.6,30.17,WSW,249,3.0,7.0,66,0.00,,,0.00,Wunderground v.1.15,2013-03-04 13:50:00,
2013-03-04 08:55:00,27.7,17.8,30.17,SW,219,3.0,7.0,66,0.00,,,0.00,Wunderground v.1.15,2013-03-04 13:55:00,
2013-03-04 09:00:00,28.0,17.7,30.17,WSW,245,4.0,7.0,65,0.00,,,0.00,Wunderground v.1.15,2013-03-04 14:00:00,
2013-03-04 09:05:00,28.2,17.2,30.17,SW,228,4.0,7.0,63,0.00,,,0.00,Wunderground v.1.15,2013-03-04 14:05:00,
2013-03-04 09:15:00,28.6,17.2,30.18,WSW,253,4.0,7.0,62,0.00,,,0.00,Wunderground v.1.15,2013-03-04 14:15:00,
2013-03-04 09:20:00,28.9,17.1,30.18,SW,228,4.0,7.0,61,0.00,,,0.00,Wunderground v.1.15,2013-03-04 14:20:00,
2013-03-04 09:25:00,29.2,16.6,30.18,SW,236,4.0,7.0,59,0.00,,,0.00,Wunderground v.1.15,2013-03-04 14:25:00,
2013-03-04 09:30:00,29.8,16.8,30.18,SW,216,4.0,7.0,58,0.00,,,0.00,Wunderground v.1.15,2013-03-04 14:30:00,
2013-03-04 09:35:00,30.2,16.8,30.18,WSW,248,3.0,7.0,57,0.00,,,0.00,Wunderground v.1.15,2013-03-04 14:35:00,
2013-03-04 09:40:00,30.3,16.9,30.19,WSW,248,4.0,4.0,57,0.00,,,0.00,Wunderground v.1.15,2013-03-04 14:40:00,
2013-03-04 09:45:00,30.7,16.8,30.19,WSW,238,4.0,7.0,56,0.00,,,0.00,Wunderground v.1.15,2013-03-04 14:45:00,
2013-03-04 09:50:00,30.6,15.5,30.19,West,269,4.0,7.0,53,0.00,,,0.00,Wunderground v.1.15,2013-03-04 14:50:00,
2013-03-04 09:55:00,30.8,15.7,30.18,WSW,238,5.0,7.0,53,0.00,,,0.00,Wunderground v.1.15,2013-03-04 14:55:00,
2013-03-04 10:00:00,31.4,16.2,30.19,WSW,245,4.0,7.0,53,0.00,,,0.00,Wunderground v.1.15,2013-03-04 15:00:00,
2013-03-04 10:05:00,31.8,15.7,30.19,SW,236,4.0,7.0,51,0.00,,,0.00,Wunderground v.1.15,2013-03-04 15:05:00,
2013-03-04 10:10:00,32.1,16.0,30.19,SW,236,4.0,7.0,51,0.00,,,0.00,Wunderground v.1.15,2013-03-04 15:10:00,
2013-03-04 10:15:00,32.6,15.5,30.19,WSW,244,4.0,7.0,49,0.00,,,0.00,Wunderground v.1.15,2013-03-04 15:15:00,
2013-03-04 10:20:00,33.0,15.9,30.19,SW,219,4.0,7.0,49,0.00,,,0.00,Wunderground v.1.15,2013-03-04 15:20:00,
2013-03-04 10:25:00,33.3,15.2,30.19,SW,224,4.0,7.0,47,0.00,,,0.00,Wunderground v.1.15,2013-03-04 15:25:00,
2013-03-04 10:30:00,33.9,15.3,30.18,West,271,4.0,4.0,46,0.00,,,0.00,Wunderground v.1.15,2013-03-04 15:30:00,
2013-03-04 10:35:00,34.1,14.9,30.18,WSW,243,4.0,7.0,45,0.00,,,0.00,Wunderground v.1.15,2013-03-04 15:35:00,
2013-03-04 10:40:00,34.7,14.5,30.18,SW,217,5.0,7.0,43,0.00,,,0.00,Wunderground v.1.15,2013-03-04 15:40:00,
2013-03-04 10:45:00,34.8,12.9,30.18,WSW,238,4.0,7.0,40,0.00,,,0.00,Wunderground v.1.15,2013-03-04 15:45:00,
2013-03-04 10:50:00,35.3,12.8,30.18,WSW,245,4.0,7.0,39,0.00,,,0.00,Wunderground v.1.15,2013-03-04 15:50:00,
2013-03-04 11:00:00,36.0,12.8,30.18,SW,231,4.0,7.0,38,0.00,,,0.00,Wunderground v.1.15,2013-03-04 16:00:00,
2013-03-04 11:05:00,36.3,12.5,30.18,SW,222,5.0,7.0,37,0.00,,,0.00,Wunderground v.1.15,2013-03-04 16:05:00,
2013-03-04 11:10:00,36.7,12.2,30.18,SSW,211,5.0,5.0,36,0.00,,,0.00,Wunderground v.1.15,2013-03-04 16:10:00,
2013-03-04 11:15:00,36.9,13.0,30.18,SSW,205,5.0,7.0,37,0.00,,,0.00,Wunderground v.1.15,2013-03-04 16:15:00,
2013-03-04 11:25:00,37.3,12.7,30.19,SW,219,4.0,7.0,36,0.00,,,0.00,Wunderground v.1.15,2013-03-04 16:25:00,
2013-03-04 11:30:00,38.1,13.5,30.19,SW,221,4.0,7.0,36,0.00,,,0.00,Wunderground v.1.15,2013-03-04 16:30:00,
2013-03-04 11:35:00,38.4,13.1,30.18,SW,233,4.0,7.0,35,0.00,,,0.00,Wunderground v.1.15,2013-03-04 16:35:00,
2013-03-04 11:40:00,39.0,14.3,30.18,SW,231,4.0,7.0,36,0.00,,,0.00,Wunderground v.1.15,2013-03-04 16:40:00,
2013-03-04 11:45:00,38.8,13.4,30.18,South,189,4.0,7.0,35,0.00,,,0.00,Wunderground v.1.15,2013-03-04 16:45:00,
2013-03-04 11:50:00,39.4,13.3,30.17,WNW,286,4.0,4.0,34,0.00,,,0.00,Wunderground v.1.15,2013-03-04 16:50:00,
2013-03-04 11:55:00,39.2,13.8,30.17,West,271,4.0,7.0,35,0.00,,,0.00,Wunderground v.1.15,2013-03-04 16:55:00,
2013-03-04 12:00:00,39.5,14.1,30.17,SW,221,4.0,7.0,35,0.00,,,0.00,Wunderground v.1.15,2013-03-04 17:00:00,
2013-03-04 12:05:00,40.2,15.3,30.18,SE,146,4.0,7.0,36,0.00,,,0.00,Wunderground v.1.15,2013-03-04 17:05:00,
2013-03-04 12:10:00,41.1,14.8,30.18,SW,221,3.0,7.0,34,0.00,,,0.00,Wunderground v.1.15,2013-03-04 17:10:00,
2013-03-04 12:15:00,41.4,14.4,30.18,SSW,203,4.0,7.0,33,0.00,,,0.00,Wunderground v.1.15,2013-03-04 17:15:00,
2013-03-04 12:20:00,42.0,14.9,30.18,SE,124,3.0,7.0,33,0.00,,,0.00,Wunderground v.1.15,2013-03-04 17:20:00,
2013-03-04 12:25:00,41.9,15.5,30.18,SE,133,3.0,7.0,34,0.00,,,0.00,Wunderground v.1.15,2013-03-04 17:25:00,
2013-03-04 12:30:00,42.0,14.2,30.18,SSW,200,3.0,3.0,32,0.00,,,0.00,Wunderground v.1.15,2013-03-04 17:30:00,
2013-03-04 12:35:00,42.9,13.5,30.17,SW,236,3.0,4.0,30,0.00,,,0.00,Wunderground v.1.15,2013-03-04 17:35:00,
2013-03-04 12:45:00,42.1,12.8,30.17,SSW,208,4.0,7.0,30,0.00,,,0.00,Wunderground v.1.15,2013-03-04 17:45:00,
2013-03-04 12:50:00,42.5,12.4,30.17,South,186,4.0,7.0,29,0.00,,,0.00,Wunderground v.1.15,2013-03-04 17:50:00,
2013-03-04 12:55:00,42.8,12.7,30.17,SE,142,4.0,7.0,29,0.00,,,0.00,Wunderground v.1.15,2013-03-04 17:55:00,
2013-03-04 13:00:00,42.4,11.5,30.16,WSW,249,5.0,7.0,28,0.00,,,0.00,Wunderground v.1.15,2013-03-04 18:00:00,
2013-03-04 13:05:00,42.4,12.3,30.17,SW,215,5.0,7.0,29,0.00,,,0.00,Wunderground v.1.15,2013-03-04 18:05:00,
2013-03-04 13:10:00,43.2,13.0,30.17,South,190,4.0,4.0,29,0.00,,,0.00,Wunderground v.1.15,2013-03-04 18:10:00,
2013-03-04 13:15:00,44.0,14.5,30.17,SW,219,3.0,7.0,30,0.00,,,0.00,Wunderground v.1.15,2013-03-04 18:15:00,
2013-03-04 13:25:00,43.7,13.5,30.15,SSW,206,4.0,7.0,29,0.00,,,0.00,Wunderground v.1.15,2013-03-04 18:25:00,
2013-03-04 13:30:00,43.9,14.4,30.15,SSW,205,4.0,4.0,30,0.00,,,0.00,Wunderground v.1.15,2013-03-04 18:30:00,
2013-03-04 13:35:00,44.7,13.5,30.15,SSW,197,2.0,7.0,28,0.00,,,0.00,Wunderground v.1.15,2013-03-04 18:35:00,
2013-03-04 13:40:00,44.9,13.7,30.14,SSW,198,2.0,7.0,28,0.00,,,0.00,Wunderground v.1.15,2013-03-04 18:40:00,
2013-03-04 13:45:00,45.0,13.0,30.14,SSW,195,3.0,7.0,27,0.00,,,0.00,Wunderground v.1.15,2013-03-04 18:45:00,
2013-03-04 13:50:00,45.5,14.2,30.13,WSW,238,3.0,7.0,28,0.00,,,0.00,Wunderground v.1.15,2013-03-04 18:50:00,
2013-03-04 13:55:00,45.2,14.0,30.13,SSW,210,3.0,7.0,28,0.00,,,0.00,Wunderground v.1.15,2013-03-04 18:55:00,
2013-03-04 14:00:00,45.7,14.4,30.13,SSW,207,3.0,3.0,28,0.00,,,0.00,Wunderground v.1.15,2013-03-04 19:00:00,
2013-03-04 14:10:00,46.1,13.9,30.13,SSW,210,3.0,3.0,27,0.00,,,0.00,Wunderground v.1.15,2013-03-04 19:10:00,
2013-03-04 14:15:00,46.1,13.9,30.13,SW,226,3.0,7.0,27,0.00,,,0.00,Wunderground v.1.15,2013-03-04 19:15:00,
2013-03-04 14:20:00,46.4,13.3,30.12,South,173,2.0,2.0,26,0.00,,,0.00,Wunderground v.1.15,2013-03-04 19:20:00,
2013-03-04 14:25:00,46.7,12.7,30.12,SSE,163,2.0,7.0,25,0.00,,,0.00,Wunderground v.1.15,2013-03-04 19:25:00,
2013-03-04 14:30:00,47.1,14.8,30.12,SE,132,2.0,7.0,27,0.00,,,0.00,Wunderground v.1.15,2013-03-04 19:30:00,
2013-03-04 14:35:00,47.5,14.3,30.12,West,264,2.0,7.0,26,0.00,,,0.00,Wunderground v.1.15,2013-03-04 19:35:00,
2013-03-04 14:40:00,47.7,12.6,30.12,NW,313,2.0,2.0,24,0.00,,,0.00,Wunderground v.1.15,2013-03-04 19:40:00,
2013-03-04 14:50:00,47.8,13.6,30.11,SE,125,2.0,7.0,25,0.00,,,0.00,Wunderground v.1.15,2013-03-04 19:50:00,
2013-03-04 14:55:00,48.2,14.0,30.11,SE,133,2.0,7.0,25,0.00,,,0.00,Wunderground v.1.15,2013-03-04 19:55:00,
2013-03-04 15:00:00,47.8,12.7,30.12,SSE,159,2.0,2.0,24,0.00,,,0.00,Wunderground v.1.15,2013-03-04 20:00:00,
2013-03-04 15:05:00,47.7,11.6,30.11,WSW,252,2.0,5.0,23,0.00,,,0.00,Wunderground v.1.15,2013-03-04 20:05:00,
2013-03-04 15:10:00,47.3,11.3,30.12,SW,225,2.0,7.0,23,0.00,,,0.00,Wunderground v.1.15,2013-03-04 20:10:00,
2013-03-04 15:15:00,47.3,13.2,30.11,SE,129,3.0,7.0,25,0.00,,,0.00,Wunderground v.1.15,2013-03-04 20:15:00,
2013-03-04 15:20:00,47.9,12.8,30.11,SSE,167,2.0,7.0,24,0.00,,,0.00,Wunderground v.1.15,2013-03-04 20:20:00,
2013-03-04 15:25:00,48.0,12.9,30.11,ESE,114,2.0,7.0,24,0.00,,,0.00,Wunderground v.1.15,2013-03-04 20:25:00,
2013-03-04 15:30:00,48.1,13.9,30.11,SE,136,2.0,2.0,25,0.00,,,0.00,Wunderground v.1.15,2013-03-04 20:30:00,
2013-03-04 15:35:00,48.3,14.1,30.11,ESE,110,2.0,7.0,25,0.00,,,0.00,Wunderground v.1.15,2013-03-04 20:35:00,
2013-03-04 15:40:00,48.4,14.1,30.11,WSW,257,2.0,2.0,25,0.00,,,0.00,Wunderground v.1.15,2013-03-04 20:40:00,
2013-03-04 15:45:00,48.4,13.2,30.11,NW,320,2.0,7.0,24,0.00,,,0.00,Wunderground v.1.15,2013-03-04 20:45:00,
2013-03-04 15:50:00,48.1,13.0,30.11,ESE,112,2.0,2.0,24,0.00,,,0.00,Wunderground v.1.15,2013-03-04 20:50:00,
2013-03-04 15:55:00,48.0,12.9,30.11,East,98,2.0,7.0,24,0.00,,,0.00,Wunderground v.1.15,2013-03-04 20:55:00,
2013-03-04 16:05:00,48.1,13.0,30.11,ENE,65,1.0,7.0,24,0.00,,,0.00,Wunderground v.1.15,2013-03-04 21:05:00,
2013-03-04 16:15:00,48.4,14.1,30.11,SE,126,1.0,7.0,25,0.00,,,0.00,Wunderground v.1.15,2013-03-04 21:15:00,
2013-03-04 16:20:00,48.7,14.4,30.11,NNW,333,1.0,7.0,25,0.00,,,0.00,Wunderground v.1.15,2013-03-04 21:20:00,
2013-03-04 16:25:00,48.6,15.2,30.11,ENE,71,1.0,7.0,26,0.00,,,0.00,Wunderground v.1.15,2013-03-04 21:25:00,
2013-03-04 16:30:00,48.1,13.9,30.11,East,92,2.0,2.0,25,0.00,,,0.00,Wunderground v.1.15,2013-03-04 21:30:00,
2013-03-04 16:35:00,48.2,14.9,30.10,WSW,248,1.0,7.0,26,0.00,,,0.00,Wunderground v.1.15,2013-03-04 21:35:00,
2013-03-04 16:40:00,48.1,14.8,30.11,ENE,71,1.0,1.0,26,0.00,,,0.00,Wunderground v.1.15,2013-03-04 21:40:00,
2013-03-04 16:45:00,48.0,15.6,30.11,WNW,282,1.0,7.0,27,0.00,,,0.00,Wunderground v.1.15,2013-03-04 21:45:00,
2013-03-04 16:55:00,47.7,15.3,30.11,WNW,298,1.0,7.0,27,0.00,,,0.00,Wunderground v.1.15,2013-03-04 21:55:00,
2013-03-04 17:00:00,47.5,15.1,30.11,NW,312,0.0,7.0,27,0.00,,,0.00,Wunderground v.1.15,2013-03-04 22:00:00,
2013-03-04 17:10:00,47.3,15.8,30.11,WNW,288,0.0,7.0,28,0.00,,,0.00,Wunderground v.1.15,2013-03-04 22:10:00,
2013-03-04 17:15:00,47.3,15.0,30.11,WNW,288,0.0,7.0,27,0.00,,,0.00,Wunderground v.1.15,2013-03-04 22:15:00,
2013-03-04 17:25:00,47.2,14.9,30.11,East,93,0.0,7.0,27,0.00,,,0.00,Wunderground v.1.15,2013-03-04 22:25:00,
2013-03-04 17:35:00,46.8,15.4,30.11,East,93,0.0,7.0,28,0.00,,,0.00,Wunderground v.1.15,2013-03-04 22:35:00,
2013-03-04 17:40:00,46.7,15.3,30.11,ENE,72,0.0,7.0,28,0.00,,,0.00,Wunderground v.1.15,2013-03-04 22:40:00,
2013-03-04 17:45:00,46.5,15.1,30.11,ENE,72,0.0,7.0,28,0.00,,,0.00,Wunderground v.1.15,2013-03-04 22:45:00,
2013-03-04 17:50:00,46.2,15.6,30.11,ENE,72,0.0,7.0,29,0.00,,,0.00,Wunderground v.1.15,2013-03-04 22:50:00,
2013-03-04 17:55:00,46.0,14.7,30.11,North,356,0.0,7.0,28,0.00,,,0.00,Wunderground v.1.15,2013-03-04 22:55:00,
2013-03-04 18:00:00,45.7,14.4,30.11,North,356,1.0,7.0,28,0.00,,,0.00,Wunderground v.1.15,2013-03-04 23:00:00,
2013-03-04 18:05:00,45.5,14.2,30.11,North,356,1.0,7.0,28,0.00,,,0.00,Wunderground v.1.15,2013-03-04 23:05:00,
2013-03-04 18:10:00,45.3,14.9,30.11,North,356,0.0,7.0,29,0.00,,,0.00,Wunderground v.1.15,2013-03-04 23:10:00,
2013-03-04 18:15:00,45.2,14.0,30.11,North,357,0.0,7.0,28,0.00,,,0.00,Wunderground v.1.15,2013-03-04 23:15:00,
2013-03-04 18:20:00,45.1,13.9,30.11,North,356,0.0,7.0,28,0.00,,,0.00,Wunderground v.1.15,2013-03-04 23:20:00,
2013-03-04 18:25:00,44.9,13.7,30.11,North,356,1.0,7.0,28,0.00,,,0.00,Wunderground v.1.15,2013-03-04 23:25:00,
2013-03-04 18:30:00,44.8,14.4,30.11,North,356,0.0,7.0,29,0.00,,,0.00,Wunderground v.1.15,2013-03-04 23:30:00,
2013-03-04 18:35:00,44.8,13.6,30.11,North,356,0.0,7.0,28,0.00,,,0.00,Wunderground v.1.15,2013-03-04 23:35:00,
2013-03-04 18:40:00,44.7,15.1,30.12,North,356,0.0,7.0,30,0.00,,,0.00,Wunderground v.1.15,2013-03-04 23:40:00,
2013-03-04 18:45:00,44.5,14.9,30.12,North,356,0.0,7.0,30,0.00,,,0.00,Wunderground v.1.15,2013-03-04 23:45:00,
2013-03-04 18:50:00,44.1,16.1,30.13,NE,53,0.0,7.0,32,0.00,,,0.00,Wunderground v.1.15,2013-03-04 23:50:00,
2013-03-04 18:55:00,44.1,18.8,30.13,SE,135,1.0,7.0,36,0.00,,,0.00,Wunderground v.1.15,2013-03-04 23:55:00,
2013-03-04 19:05:00,44.3,19.6,30.12,East,92,1.0,7.0,37,0.00,,,0.00,Wunderground v.1.15,2013-03-05 00:05:00,
2013-03-04 19:10:00,44.0,20.0,30.11,ESE,111,1.0,1.0,38,0.00,,,0.00,Wunderground v.1.15,2013-03-05 00:10:00,
2013-03-04 19:20:00,43.4,20.1,30.11,ESE,111,0.0,7.0,39,0.00,,,0.00,Wunderground v.1.15,2013-03-05 00:20:00,
2013-03-04 19:25:00,42.8,20.1,30.11,ESE,113,0.0,7.0,40,0.00,,,0.00,Wunderground v.1.15,2013-03-05 00:25:00,
2013-03-04 19:30:00,42.4,19.8,30.11,ESE,113,0.0,7.0,40,0.00,,,0.00,Wunderground v.1.15,2013-03-05 00:30:00,
2013-03-04 19:35:00,41.9,19.9,30.12,SW,226,0.0,7.0,41,0.00,,,0.00,Wunderground v.1.15,2013-03-05 00:35:00,
2013-03-04 19:40:00,41.7,19.7,30.12,SW,226,0.0,7.0,41,0.00,,,0.00,Wunderground v.1.15,2013-03-05 00:40:00,
2013-03-04 19:50:00,41.6,20.2,30.12,East,81,1.0,7.0,42,0.00,,,0.00,Wunderground v.1.15,2013-03-05 00:50:00,
2013-03-04 19:55:00,41.4,20.5,30.11,SE,138,1.0,7.0,43,0.00,,,0.00,Wunderground v.1.15,2013-03-05 00:55:00,
2013-03-04 20:00:00,41.3,21.0,30.11,ESE,113,1.0,7.0,44,0.00,,,0.00,Wunderground v.1.15,2013-03-05 01:00:00,
2013-03-04 20:05:00,41.2,21.4,30.11,East,101,1.0,7.0,45,0.00,,,0.00,Wunderground v.1.15,2013-03-05 01:05:00,
2013-03-04 20:10:00,40.8,20.5,30.11,ESE,119,1.0,1.0,44,0.00,,,0.00,Wunderground v.1.15,2013-03-05 01:10:00,
2013-03-04 20:15:00,40.6,20.9,30.11,ESE,115,1.0,2.0,45,0.00,,,0.00,Wunderground v.1.15,2013-03-05 01:15:00,
2013-03-04 20:20:00,41.0,21.3,30.11,East,81,2.0,7.0,45,0.00,,,0.00,Wunderground v.1.15,2013-03-05 01:20:00,
2013-03-04 20:25:00,41.3,21.0,30.11,SE,134,2.0,7.0,44,0.00,,,0.00,Wunderground v.1.15,2013-03-05 01:25:00,
2013-03-04 20:30:00,41.3,21.5,30.11,SE,128,2.0,7.0,45,0.00,,,0.00,Wunderground v.1.15,2013-03-05 01:30:00,
2013-03-04 20:35:00,41.2,20.9,30.11,SE,125,1.0,7.0,44,0.00,,,0.00,Wunderground v.1.15,2013-03-05 01:35:00,
2013-03-04 20:40:00,41.2,20.9,30.12,East,86,2.0,7.0,44,0.00,,,0.00,Wunderground v.1.15,2013-03-05 01:40:00,
2013-03-04 20:45:00,41.2,21.4,30.11,SE,131,2.0,7.0,45,0.00,,,0.00,Wunderground v.1.15,2013-03-05 01:45:00,
2013-03-04 20:50:00,41.2,21.4,30.12,ESE,121,2.0,2.0,45,0.00,,,0.00,Wunderground v.1.15,2013-03-05 01:50:00,
2013-03-04 20:55:00,41.0,21.3,30.11,SE,139,2.0,7.0,45,0.00,,,0.00,Wunderground v.1.15,2013-03-05 01:55:00,
2013-03-04 21:00:00,40.9,21.7,30.11,ESE,108,2.0,7.0,46,0.00,,,0.00,Wunderground v.1.15,2013-03-05 02:00:00,
2013-03-04 21:05:00,40.8,21.6,30.11,SE,137,2.0,7.0,46,0.00,,,0.00,Wunderground v.1.15,2013-03-05 02:05:00,
2013-03-04 21:15:00,40.0,21.4,30.11,ESE,105,1.0,7.0,47,0.00,,,0.00,Wunderground v.1.15,2013-03-05 02:15:00,
2013-03-04 21:20:00,40.2,21.6,30.11,East,99,2.0,7.0,47,0.00,,,0.00,Wunderground v.1.15,2013-03-05 02:20:00,
2013-03-04 21:25:00,40.3,21.1,30.11,SE,124,2.0,7.0,46,0.00,,,0.00,Wunderground v.1.15,2013-03-05 02:25:00,
2013-03-04 21:30:00,40.3,21.6,30.12,SE,135,2.0,2.0,47,0.00,,,0.00,Wunderground v.1.15,2013-03-05 02:30:00,
2013-03-04 21:35:00,40.1,21.5,30.12,SSE,150,1.0,7.0,47,0.00,,,0.00,Wunderground v.1.15,2013-03-05 02:35:00,
2013-03-04 21:40:00,39.7,21.1,30.12,SSE,155,1.0,7.0,47,0.00,,,0.00,Wunderground v.1.15,2013-03-05 02:40:00,
2013-03-04 21:45:00,39.6,21.5,30.12,East,90,1.0,7.0,48,0.00,,,0.00,Wunderground v.1.15,2013-03-05 02:45:00,
2013-03-04 21:50:00,40.2,22.1,30.12,SE,134,2.0,7.0,48,0.00,,,0.00,Wunderground v.1.15,2013-03-05 02:50:00,
2013-03-04 21:55:00,40.2,21.6,30.12,ESE,119,2.0,7.0,47,0.00,,,0.00,Wunderground v.1.15,2013-03-05 02:55:00,
2013-03-04 22:05:00,40.7,22.0,30.12,ESE,121,3.0,7.0,47,0.00,,,0.00,Wunderground v.1.15,2013-03-05 03:05:00,
2013-03-04 22:15:00,40.7,22.0,30.12,East,82,2.0,4.0,47,0.00,,,0.00,Wunderground v.1.15,2013-03-05 03:15:00,
2013-03-04 22:20:00,40.9,22.2,30.11,East,82,3.0,7.0,47,0.00,,,0.00,Wunderground v.1.15,2013-03-05 03:20:00,
2013-03-04 22:25:00,41.3,22.6,30.11,East,101,5.0,7.0,47,0.00,,,0.00,Wunderground v.1.15,2013-03-05 03:25:00,
2013-03-04 22:30:00,41.2,22.5,30.11,East,90,5.0,7.0,47,0.00,,,0.00,Wunderground v.1.15,2013-03-05 03:30:00,
2013-03-04 22:35:00,41.1,22.9,30.11,SE,124,4.0,7.0,48,0.00,,,0.00,Wunderground v.1.15,2013-03-05 03:35:00,
2013-03-04 22:45:00,41.1,22.9,30.11,East,94,3.0,5.0,48,0.00,,,0.00,Wunderground v.1.15,2013-03-05 03:45:00,
2013-03-04 22:50:00,41.4,23.2,30.11,SE,138,4.0,4.0,48,0.00,,,0.00,Wunderground v.1.15,2013-03-05 03:50:00,
2013-03-04 22:55:00,41.2,23.5,30.11,ESE,108,4.0,7.0,49,0.00,,,0.00,Wunderground v.1.15,2013-03-05 03:55:00,
2013-03-04 23:00:00,41.2,23.0,30.11,SE,124,3.0,3.0,48,0.00,,,0.00,Wunderground v.1.15,2013-03-05 04:00:00,
2013-03-04 23:05:00,41.3,23.6,30.10,SE,134,3.0,4.0,49,0.00,,,0.00,Wunderground v.1.15,2013-03-05 04:05:00,
2013-03-04 23:10:00,41.6,24.3,30.10,ESE,117,4.0,4.0,50,0.00,,,0.00,Wunderground v.1.15,2013-03-05 04:10:00,
2013-03-04 23:15:00,41.7,24.4,30.10,ESE,108,4.0,7.0,50,0.00,,,0.00,Wunderground v.1.15,2013-03-05 04:15:00,
2013-03-04 23:20:00,41.7,24.4,30.10,ESE,103,4.0,7.0,50,0.00,,,0.00,Wunderground v.1.15,2013-03-05 04:20:00,
2013-03-04 23:25:00,41.8,24.5,30.09,ESE,121,4.0,7.0,50,0.00,,,0.00,Wunderground v.1.15,2013-03-05 04:25:00,
2013-03-04 23:30:00,41.9,24.6,30.10,ESE,113,4.0,4.0,50,0.00,,,0.00,Wunderground v.1.15,2013-03-05 04:30:00,
2013-03-04 23:35:00,41.8,24.5,30.10,SE,130,3.0,7.0,50,0.00,,,0.00,Wunderground v.1.15,2013-03-05 04:35:00,
2013-03-04 23:40:00,41.6,24.8,30.10,SE,129,2.0,7.0,51,0.00,,,0.00,Wunderground v.1.15,2013-03-05 04:40:00,
2013-03-04 23:45:00,41.7,24.9,30.10,ESE,106,2.0,7.0,51,0.00,,,0.00,Wunderground v.1.15,2013-03-05 04:45:00,
2013-03-04 23:50:00,41.6,25.3,30.10,ESE,123,3.0,7.0,52,0.00,,,0.00,Wunderground v.1.15,2013-03-05 04:50:00,
2013-03-04 23:55:00,41.8,25.0,30.10,ESE,109,3.0,7.0,51,0.00,,,0.00,Wunderground v.1.15,2013-03-05 04:55:00,